Time;durP1;ratioP1;P1;durP2;ratioP2;P2;SDS_P1;SDS_P2;PMS_P1;PMS_P2;Temp;Humidity;BMP_temperature;BMP_pressure;BME280_temperature;BME280_humidity;BME280_pressure;Samples;Min_cycle;Max_cycle;Signal;HPM_P1;HPM_P2
2020/12/28 00:05:11;;;;;;;0.90;0.70;;;6.40;99.90;;;;;;4949601;29;20236;-71
2020/12/28 00:10:58;;;;;;;0.93;0.70;;;6.40;99.90;;;;;;4962340;29;20405;-72
2020/12/28 00:13:23;;;;;;;1.20;1.10;;;6.40;99.90;;;;;;4961022;29;20426;-71
2020/12/28 00:15:49;;;;;;;1.00;0.80;;;6.50;99.90;;;;;;4957499;29;20174;-72
2020/12/28 00:21:36;;;;;;;1.57;1.27;;;6.40;99.90;;;;;;4957489;29;20536;-71
2020/12/28 00:24:02;;;;;;;1.00;0.90;;;6.30;99.90;;;;;;4957849;29;20414;-72
2020/12/28 00:26:33;;;;;;;1.00;0.80;;;6.40;99.90;;;;;;4957701;28;20214;-72
2020/12/28 00:28:59;;;;;;;1.10;0.80;;;6.50;99.90;;;;;;4957617;28;20163;-72
2020/12/28 00:31:24;;;;;;;1.70;1.27;;;6.40;99.90;;;;;;4957301;29;20425;-72
2020/12/28 00:33:50;;;;;;;1.33;0.90;;;6.40;99.90;;;;;;4957427;29;20179;-72
2020/12/28 00:36:16;;;;;;;1.13;1.03;;;6.40;99.90;;;;;;4957712;29;20181;-73
2020/12/28 00:38:41;;;;;;;2.03;0.80;;;6.40;99.90;;;;;;4960647;29;20186;-72
2020/12/28 00:41:10;;;;;;;1.37;0.90;;;6.30;99.90;;;;;;4958535;29;20447;-70
2020/12/28 00:43:36;;;;;;;1.10;0.90;;;6.40;99.90;;;;;;4957257;28;20217;-71
2020/12/28 00:46:05;;;;;;;1.30;0.90;;;6.50;99.90;;;;;;4958271;28;21063;-71
2020/12/28 00:48:30;;;;;;;1.10;0.80;;;6.40;99.90;;;;;;4956799;28;20174;-70
2020/12/28 00:50:56;;;;;;;1.30;1.00;;;6.40;99.90;;;;;;4956854;29;20436;-71
2020/12/28 00:53:22;;;;;;;0.90;0.80;;;6.40;99.90;;;;;;4956828;28;20172;-71
2020/12/28 00:55:47;;;;;;;1.07;0.83;;;6.40;99.90;;;;;;4956985;29;20182;-70
2020/12/28 00:58:13;;;;;;;1.60;1.00;;;6.40;99.90;;;;;;4957205;29;20174;-70
2020/12/28 01:00:38;;;;;;;1.10;0.80;;;6.50;99.90;;;;;;4956162;28;20183;-70
2020/12/28 01:03:04;;;;;;;1.10;0.83;;;6.30;99.90;;;;;;4956787;29;20178;-70
2020/12/28 01:05:29;;;;;;;1.30;0.90;;;6.30;99.90;;;;;;4956294;29;20233;-71
2020/12/28 01:07:55;;;;;;;1.00;0.70;;;6.30;99.90;;;;;;4956710;29;20210;-71
2020/12/28 01:10:20;;;;;;;1.20;0.80;;;6.40;99.90;;;;;;4956626;29;20573;-70
2020/12/28 01:12:46;;;;;;;1.00;0.70;;;6.40;99.90;;;;;;4956608;29;20198;-70
2020/12/28 01:15:11;;;;;;;1.30;0.90;;;6.40;99.90;;;;;;4956829;29;20174;-70
2020/12/28 01:17:37;;;;;;;1.00;0.83;;;6.40;99.90;;;;;;4956519;29;20188;-70
2020/12/28 01:20:03;;;;;;;2.20;0.93;;;6.40;99.90;;;;;;4956510;29;20182;-70
2020/12/28 01:22:30;;;;;;;1.00;0.70;;;6.40;99.90;;;;;;4956426;29;20176;-70
2020/12/28 01:24:55;;;;;;;1.30;0.90;;;6.40;99.90;;;;;;4956263;29;20465;-71
2020/12/28 01:27:21;;;;;;;1.20;0.90;;;6.40;99.90;;;;;;4956061;29;20525;-71
2020/12/28 01:29:46;;;;;;;0.90;0.70;;;6.40;99.90;;;;;;4956374;29;20630;-71
2020/12/28 01:32:12;;;;;;;2.90;1.00;;;6.40;99.90;;;;;;4956303;29;20177;-71
2020/12/28 01:34:37;;;;;;;1.20;1.00;;;6.30;99.90;;;;;;4956250;29;20197;-70
2020/12/28 01:37:03;;;;;;;1.10;0.90;;;6.40;99.90;;;;;;4955843;29;20174;-71
2020/12/28 01:39:28;;;;;;;0.93;0.83;;;6.50;99.90;;;;;;4956211;29;20178;-71
2020/12/28 01:41:54;;;;;;;1.37;0.97;;;6.40;99.90;;;;;;4956209;29;20672;-71
2020/12/28 01:44:19;;;;;;;1.10;0.90;;;6.30;99.90;;;;;;4956014;29;20208;-71
2020/12/28 01:46:45;;;;;;;1.10;0.80;;;6.40;99.90;;;;;;4958032;29;20214;-71
2020/12/28 01:49:11;;;;;;;1.53;0.70;;;6.30;99.90;;;;;;4956112;29;20645;-71
2020/12/28 01:51:37;;;;;;;1.20;1.03;;;6.30;99.90;;;;;;4956105;28;20240;-71
2020/12/28 01:54:03;;;;;;;1.07;0.70;;;6.30;99.90;;;;;;4956092;28;20191;-71
2020/12/28 01:56:31;;;;;;;1.00;0.90;;;6.40;99.90;;;;;;4955643;28;21003;-71
2020/12/28 01:58:57;;;;;;;1.10;0.80;;;6.50;99.90;;;;;;4955950;28;20432;-71
2020/12/28 02:01:25;;;;;;;2.00;0.80;;;6.40;99.90;;;;;;4955874;29;20501;-71
2020/12/28 02:03:51;;;;;;;1.10;0.87;;;6.50;99.90;;;;;;4955610;28;20250;-71
2020/12/28 02:06:16;;;;;;;1.07;0.80;;;6.50;99.90;;;;;;4955335;28;20486;-71
2020/12/28 06:30:23;;;;;;;1.20;1.10;;;6.10;99.90;;;;;;6026637;23;20553;-71
2020/12/28 06:33:00;;;;;;;2.07;1.20;;;6.10;99.90;;;;;;4993295;28;20950;-72
2020/12/28 06:35:28;;;;;;;2.10;1.40;;;6.10;99.90;;;;;;4993697;28;20544;-73
2020/12/28 06:37:54;;;;;;;4.10;1.57;;;6.20;99.90;;;;;;4993818;28;20810;-70
2020/12/28 06:40:31;;;;;;;2.17;1.50;;;6.10;99.90;;;;;;4993578;28;20467;-71
2020/12/28 06:45:37;;;;;;;6.17;2.60;;;6.10;99.90;;;;;;4953759;29;20504;-75
2020/12/28 06:48:03;;;;;;;2.50;1.90;;;6.20;99.90;;;;;;4954942;29;20440;-75
2020/12/28 06:50:28;;;;;;;2.20;1.60;;;6.20;99.90;;;;;;4954814;29;20439;-75
2020/12/28 06:52:54;;;;;;;3.10;1.77;;;6.20;99.90;;;;;;4954797;29;20509;-75
2020/12/28 06:55:23;;;;;;;1.63;1.40;;;6.20;99.90;;;;;;4954709;29;20186;-75
2020/12/28 06:57:49;;;;;;;1.80;1.60;;;6.20;99.90;;;;;;4955826;28;20175;-75
2020/12/28 07:00:19;;;;;;;1.93;1.50;;;6.30;99.90;;;;;;4958360;29;20792;-72
2020/12/28 07:02:52;;;;;;;1.47;1.30;;;6.30;99.90;;;;;;4958562;28;20175;-72
2020/12/28 07:05:25;;;;;;;1.23;1.13;;;6.20;99.90;;;;;;4958354;28;20540;-72
2020/12/28 07:07:52;;;;;;;2.07;1.50;;;6.20;99.90;;;;;;4958413;28;20425;-74
2020/12/28 07:10:19;;;;;;;3.50;1.43;;;6.30;99.90;;;;;;4958371;28;20434;-74
2020/12/28 07:12:45;;;;;;;1.50;1.30;;;6.40;99.90;;;;;;4958404;28;20457;-74
2020/12/28 07:15:11;;;;;;;1.30;1.20;;;6.40;99.90;;;;;;4958245;29;20550;-74
2020/12/28 07:17:36;;;;;;;1.60;1.50;;;6.40;99.90;;;;;;4958319;28;20778;-74
2020/12/28 07:20:05;;;;;;;1.63;1.00;;;6.40;99.90;;;;;;4958209;28;20178;-74
2020/12/28 07:22:35;;;;;;;1.30;1.20;;;6.50;99.90;;;;;;4958024;29;20271;-74
2020/12/28 07:25:01;;;;;;;1.90;1.40;;;6.50;99.90;;;;;;4957974;28;20592;-74
2020/12/28 07:27:27;;;;;;;2.03;1.17;;;6.40;99.90;;;;;;4958004;29;20896;-74
2020/12/28 07:29:53;;;;;;;1.37;1.20;;;6.30;99.90;;;;;;4957934;29;20476;-74
2020/12/28 07:32:19;;;;;;;1.77;1.30;;;6.50;99.90;;;;;;4957799;29;20179;-73
2020/12/28 07:34:54;;;;;;;1.50;1.40;;;6.40;99.90;;;;;;4957844;29;20422;-72
2020/12/28 07:37:20;;;;;;;1.87;1.20;;;6.40;99.90;;;;;;4957775;29;20951;-72
2020/12/28 07:39:48;;;;;;;2.50;0.90;;;6.30;99.90;;;;;;4957753;29;20423;-72
2020/12/28 07:42:18;;;;;;;4.60;1.20;;;6.40;99.90;;;;;;4957736;28;20447;-73
2020/12/28 07:44:50;;;;;;;2.10;1.20;;;6.30;99.90;;;;;;4957512;29;20528;-72
2020/12/28 07:47:19;;;;;;;1.87;1.10;;;6.30;99.90;;;;;;4957460;29;20433;-72
2020/12/28 07:49:46;;;;;;;1.10;1.00;;;6.30;99.90;;;;;;4957539;28;20921;-70
2020/12/28 07:52:15;;;;;;;3.17;1.50;;;6.40;99.90;;;;;;4948419;29;20447;-69
2020/12/28 07:54:48;;;;;;;1.13;1.03;;;6.30;99.90;;;;;;4947885;29;20190;-69
2020/12/28 07:57:22;;;;;;;1.47;1.00;;;6.40;99.90;;;;;;4939306;29;20445;-69
2020/12/28 08:00:03;;;;;;;2.13;1.33;;;6.30;99.90;;;;;;4937449;29;20448;-70
2020/12/28 08:02:47;;;;;;;1.90;1.47;;;6.20;99.90;;;;;;4937248;29;20464;-69
2020/12/28 08:05:13;;;;;;;2.13;1.40;;;6.20;99.90;;;;;;4937083;29;20540;-74
2020/12/28 08:07:39;;;;;;;3.30;1.53;;;6.10;99.90;;;;;;4937062;29;20459;-69
2020/12/28 08:10:09;;;;;;;8.13;2.33;;;6.10;99.90;;;;;;4936972;29;20422;-73
2020/12/28 08:12:39;;;;;;;4.37;2.00;;;6.00;99.90;;;;;;4937101;29;20183;-74
2020/12/28 08:15:04;;;;;;;1.40;1.30;;;6.00;99.90;;;;;;4937070;29;20435;-72
2020/12/28 08:17:30;;;;;;;1.60;1.40;;;6.00;99.90;;;;;;4937008;29;20506;-72
2020/12/28 08:20:12;;;;;;;3.27;1.20;;;6.00;99.90;;;;;;4936941;29;20182;-71
2020/12/28 08:22:40;;;;;;;1.87;1.43;;;6.00;99.90;;;;;;4936791;29;20178;-71
2020/12/28 08:25:07;;;;;;;4.13;1.60;;;6.10;99.90;;;;;;4936846;29;20466;-71
2020/12/28 08:27:33;;;;;;;3.53;1.70;;;6.10;99.90;;;;;;4936795;29;20865;-71
2020/12/28 08:30:00;;;;;;;2.07;1.50;;;6.10;99.90;;;;;;4936644;29;20430;-71
2020/12/28 08:32:27;;;;;;;2.60;1.30;;;6.10;99.90;;;;;;4936404;29;20431;-71
2020/12/28 08:34:54;;;;;;;1.30;1.20;;;6.10;99.90;;;;;;4936777;29;20430;-71
2020/12/28 08:37:20;;;;;;;2.53;1.23;;;6.10;99.90;;;;;;4936630;29;20909;-71
2020/12/28 08:39:46;;;;;;;3.97;1.90;;;6.00;99.90;;;;;;4936761;29;20438;-71
2020/12/28 08:42:12;;;;;;;1.43;1.30;;;6.10;99.90;;;;;;4936860;29;20934;-71
2020/12/28 08:44:40;;;;;;;1.67;1.30;;;6.00;99.90;;;;;;4936217;29;20241;-71
2020/12/28 08:47:10;;;;;;;1.70;1.50;;;6.00;99.90;;;;;;4936647;29;20194;-71
2020/12/28 08:49:36;;;;;;;3.03;1.40;;;6.00;99.90;;;;;;4936453;29;20435;-71
2020/12/28 08:52:11;;;;;;;2.80;1.30;;;6.10;99.90;;;;;;4936520;29;20538;-71
2020/12/28 08:54:37;;;;;;;2.13;1.67;;;6.10;99.90;;;;;;4936613;29;20427;-71
2020/12/28 08:57:03;;;;;;;1.60;1.17;;;6.00;99.90;;;;;;4936317;29;20443;-71
2020/12/28 08:59:29;;;;;;;1.17;0.90;;;6.10;99.90;;;;;;4936294;29;20777;-70
2020/12/28 09:01:55;;;;;;;1.70;1.30;;;6.10;99.90;;;;;;4936267;29;20434;-71
2020/12/28 09:04:24;;;;;;;1.87;1.30;;;6.10;99.90;;;;;;4934930;29;20183;-72
2020/12/28 09:06:51;;;;;;;1.63;1.40;;;6.20;99.90;;;;;;4936167;29;20482;-71
2020/12/28 09:09:17;;;;;;;4.40;1.70;;;6.30;99.90;;;;;;4936029;29;20427;-70
2020/12/28 09:11:44;;;;;;;1.63;1.10;;;6.30;99.90;;;;;;4936015;29;20534;-71
2020/12/28 09:14:10;;;;;;;2.90;1.20;;;6.30;99.90;;;;;;4937049;29;20759;-71
2020/12/28 09:16:36;;;;;;;1.97;1.50;;;6.30;99.90;;;;;;4937284;29;20423;-71
2020/12/28 09:19:02;;;;;;;1.60;1.40;;;6.40;99.90;;;;;;4937206;29;20422;-71
2020/12/28 09:21:28;;;;;;;1.60;1.20;;;6.40;99.90;;;;;;4936524;29;20445;-71
2020/12/28 09:23:54;;;;;;;2.87;1.40;;;6.50;99.90;;;;;;4937158;29;20426;-72
2020/12/28 09:26:19;;;;;;;4.70;1.60;;;6.50;99.90;;;;;;4937032;29;20211;-71
2020/12/28 09:28:45;;;;;;;2.10;1.47;;;6.50;99.90;;;;;;4937091;29;20175;-70
2020/12/28 09:34:32;;;;;;;1.40;1.13;;;6.70;99.90;;;;;;4936630;29;20203;-71
2020/12/28 09:37:05;;;;;;;3.87;1.40;;;6.60;99.90;;;;;;4936485;29;20435;-71
2020/12/28 09:39:31;;;;;;;1.30;1.17;;;6.70;99.90;;;;;;4936965;29;20593;-71
2020/12/28 09:41:57;;;;;;;2.60;1.43;;;6.70;99.90;;;;;;4936851;29;20773;-71
2020/12/28 09:44:23;;;;;;;1.80;1.10;;;6.80;99.90;;;;;;4936347;29;20466;-70
2020/12/28 09:46:53;;;;;;;1.30;1.00;;;6.80;99.90;;;;;;4936742;29;20282;-70
2020/12/28 09:49:21;;;;;;;1.63;1.20;;;6.90;99.90;;;;;;4936816;29;20676;-70
2020/12/28 09:55:08;;;;;;;2.90;1.30;;;6.90;99.90;;;;;;4936258;29;20803;-72
2020/12/28 09:57:34;;;;;;;1.60;1.30;;;6.70;99.90;;;;;;4935944;29;20423;-70
2020/12/28 09:59:59;;;;;;;1.37;1.07;;;6.80;99.90;;;;;;4936270;29;20179;-70
2020/12/28 10:02:25;;;;;;;1.40;1.07;;;6.90;99.90;;;;;;4936443;29;20612;-70
2020/12/28 10:04:50;;;;;;;5.67;1.40;;;6.90;99.90;;;;;;4936463;29;20171;-71
2020/12/28 10:07:16;;;;;;;3.40;1.10;;;7.00;99.90;;;;;;4936633;29;20198;-69
2020/12/28 10:09:41;;;;;;;2.57;1.40;;;6.90;99.90;;;;;;4936533;29;20179;-72
2020/12/28 10:12:07;;;;;;;3.87;1.87;;;6.80;99.90;;;;;;4936458;29;20179;-70
2020/12/28 10:14:32;;;;;;;2.70;1.13;;;6.80;99.90;;;;;;4936459;29;20178;-70
2020/12/28 10:16:58;;;;;;;1.13;1.03;;;6.80;99.90;;;;;;4936460;29;20207;-70
2020/12/28 10:19:23;;;;;;;1.40;1.23;;;6.90;99.90;;;;;;4936775;29;20249;-70
2020/12/28 10:21:49;;;;;;;1.70;1.13;;;7.00;99.90;;;;;;4936454;29;20179;-70
2020/12/28 10:24:15;;;;;;;2.50;1.17;;;6.90;99.90;;;;;;4936131;29;20179;-70
2020/12/28 10:26:40;;;;;;;1.77;1.20;;;7.10;99.90;;;;;;4936074;29;20478;-70
2020/12/28 10:29:06;;;;;;;2.17;1.10;;;7.00;99.90;;;;;;4936336;29;20221;-70
2020/12/28 10:34:53;;;;;;;2.00;1.30;;;6.80;99.90;;;;;;4940065;29;20804;-75
2020/12/28 10:37:21;;;;;;;1.83;1.20;;;7.10;99.90;;;;;;4940436;29;20427;-75
2020/12/28 10:43:08;;;;;;;1.87;1.07;;;7.40;99.90;;;;;;4939918;29;20421;-76
2020/12/28 10:45:34;;;;;;;5.53;1.40;;;7.50;99.90;;;;;;4939556;29;20581;-78
2020/12/28 10:51:21;;;;;;;1.20;1.10;;;7.70;99.90;;;;;;4940327;29;20302;-79
2020/12/28 10:57:09;;;;;;;2.57;1.40;;;7.90;99.90;;;;;;4940201;29;20171;-80
2020/12/28 10:59:34;;;;;;;1.90;1.30;;;8.10;99.90;;;;;;4940981;29;20439;-78
2020/12/28 11:02:00;;;;;;;1.63;1.40;;;8.10;99.90;;;;;;4940187;29;20244;-79
2020/12/28 11:04:25;;;;;;;5.83;1.07;;;8.20;99.90;;;;;;4939525;29;20226;-79
2020/12/28 11:06:51;;;;;;;1.87;1.10;;;8.40;99.90;;;;;;4939558;29;20254;-79
2020/12/28 11:09:16;;;;;;;2.00;1.17;;;8.60;99.90;;;;;;4939756;29;20234;-77
2020/12/28 11:15:04;;;;;;;1.83;0.90;;;8.70;99.90;;;;;;4939175;29;20263;-74
2020/12/28 11:17:30;;;;;;;1.30;1.17;;;8.70;99.90;;;;;;4939432;29;20944;-79
2020/12/28 11:19:55;;;;;;;1.70;1.20;;;8.50;99.90;;;;;;4939173;29;20427;-77
2020/12/28 11:22:21;;;;;;;2.73;1.60;;;8.30;99.90;;;;;;4939313;29;20190;-81
2020/12/28 11:24:46;;;;;;;2.23;1.00;;;7.90;99.90;;;;;;4939144;29;20647;-82
2020/12/28 11:27:12;;;;;;;1.90;1.50;;;7.80;99.90;;;;;;4938875;29;20187;-79
2020/12/28 11:29:37;;;;;;;2.23;1.20;;;7.80;99.90;;;;;;4939510;29;20199;-79
2020/12/28 11:32:03;;;;;;;2.40;1.40;;;7.70;99.90;;;;;;4939123;29;20532;-81
2020/12/28 11:34:28;;;;;;;1.30;0.87;;;7.50;99.90;;;;;;4939020;29;20182;-71
2020/12/28 11:36:54;;;;;;;1.63;1.10;;;7.60;99.90;;;;;;4938947;29;20223;-71
2020/12/28 11:39:19;;;;;;;1.57;1.10;;;7.50;99.90;;;;;;4938860;29;20182;-71
2020/12/28 11:41:45;;;;;;;1.97;1.13;;;7.30;99.90;;;;;;4939302;29;20184;-71
2020/12/28 11:44:11;;;;;;;1.87;1.30;;;7.40;99.90;;;;;;4937919;29;20230;-72
2020/12/28 11:46:38;;;;;;;1.80;1.43;;;7.40;99.90;;;;;;4938579;29;20574;-71
2020/12/28 11:49:04;;;;;;;1.40;1.13;;;7.40;99.90;;;;;;4938669;29;20439;-71
2020/12/28 11:51:29;;;;;;;4.00;1.63;;;7.30;99.90;;;;;;4938526;29;20497;-71
2020/12/28 11:53:55;;;;;;;2.13;1.37;;;7.30;99.90;;;;;;4938759;29;20686;-72
2020/12/28 11:56:20;;;;;;;1.30;0.90;;;7.40;99.90;;;;;;4938414;29;20231;-72
2020/12/28 11:58:46;;;;;;;5.00;1.20;;;7.40;99.90;;;;;;4938324;29;20551;-71
2020/12/28 12:01:16;;;;;;;1.10;1.00;;;7.40;99.90;;;;;;4938004;29;20190;-71
2020/12/28 12:07:04;;;;;;;4.00;1.20;;;7.50;99.90;;;;;;4937981;29;20466;-72
2020/12/28 12:09:30;;;;;;;2.50;1.20;;;7.60;99.90;;;;;;4938148;29;20792;-72
2020/12/28 12:11:55;;;;;;;2.20;1.47;;;7.60;99.90;;;;;;4937940;29;20685;-71
2020/12/28 12:14:21;;;;;;;1.90;1.10;;;7.70;99.90;;;;;;4937774;29;20179;-72
2020/12/28 12:16:46;;;;;;;2.23;1.07;;;7.70;99.90;;;;;;4937817;29;20278;-72
2020/12/28 12:19:12;;;;;;;1.87;1.70;;;7.80;99.90;;;;;;4938020;29;20190;-71
2020/12/28 12:21:37;;;;;;;3.47;1.30;;;7.90;99.90;;;;;;4937992;29;20197;-72
2020/12/28 12:24:03;;;;;;;2.13;1.00;;;8.00;99.90;;;;;;4938027;29;20543;-71
2020/12/28 12:26:28;;;;;;;1.20;1.10;;;8.10;99.90;;;;;;4937893;29;20222;-71
2020/12/28 12:28:54;;;;;;;1.20;1.00;;;8.30;99.90;;;;;;4937957;29;20179;-72
2020/12/28 12:34:42;;;;;;;2.03;1.20;;;8.80;99.90;;;;;;4937874;29;20438;-72
2020/12/28 12:37:07;;;;;;;1.90;1.40;;;8.90;99.90;;;;;;4937677;29;20930;-73
2020/12/28 12:42:55;;;;;;;2.90;1.10;;;8.90;99.90;;;;;;4937656;29;20527;-75
2020/12/28 12:45:20;;;;;;;1.20;0.90;;;9.00;99.90;;;;;;4937338;29;20475;-74
2020/12/28 12:51:09;;;;;;;2.17;1.10;;;8.90;99.90;;;;;;4937560;29;20743;-71
2020/12/28 12:53:35;;;;;;;1.47;1.27;;;8.90;99.90;;;;;;4937637;29;20438;-72
2020/12/28 12:56:00;;;;;;;2.17;1.50;;;8.90;99.90;;;;;;4936760;29;20791;-72
2020/12/28 13:01:48;;;;;;;3.47;1.40;;;8.70;99.90;;;;;;4937347;29;20174;-71
2020/12/28 13:07:37;;;;;;;1.87;1.30;;;8.60;99.90;;;;;;4937206;29;20178;-72
2020/12/28 13:13:24;;;;;;;2.60;1.47;;;8.40;99.90;;;;;;4937241;29;20411;-72
2020/12/28 13:15:50;;;;;;;5.63;1.60;;;8.40;99.90;;;;;;4937327;29;20427;-71
2020/12/28 13:21:37;;;;;;;1.50;1.30;;;8.30;99.90;;;;;;4937015;29;20641;-72
2020/12/28 13:24:03;;;;;;;1.80;1.30;;;8.20;99.90;;;;;;4936830;29;20450;-73
2020/12/28 13:26:28;;;;;;;2.03;1.40;;;8.40;99.90;;;;;;4937034;29;20308;-73
2020/12/28 13:28:53;;;;;;;4.93;1.60;;;8.30;99.90;;;;;;4937113;29;20263;-73
2020/12/28 13:31:19;;;;;;;1.83;1.20;;;8.30;99.90;;;;;;4937396;29;20178;-73
2020/12/28 13:33:45;;;;;;;1.90;1.70;;;8.40;99.90;;;;;;4937141;29;20226;-72
2020/12/28 13:36:10;;;;;;;1.40;1.10;;;8.40;99.90;;;;;;4937042;29;20544;-71
2020/12/28 13:42:01;;;;;;;3.17;1.80;;;8.60;99.90;;;;;;4936317;29;20260;-72
2020/12/28 13:44:27;;;;;;;4.70;1.43;;;8.70;99.90;;;;;;4936293;29;20561;-72
2020/12/28 13:46:53;;;;;;;1.67;1.33;;;8.60;99.90;;;;;;4936763;29;20470;-72
2020/12/28 13:49:18;;;;;;;2.33;1.70;;;8.50;99.90;;;;;;4936796;29;20981;-72
2020/12/28 13:51:44;;;;;;;2.47;1.67;;;8.40;99.90;;;;;;4936713;29;20657;-72
2020/12/28 13:57:31;;;;;;;2.23;1.40;;;8.50;99.90;;;;;;4936437;29;20195;-72
2020/12/28 13:59:57;;;;;;;1.70;1.40;;;8.50;99.90;;;;;;4936099;29;20490;-72
2020/12/28 14:02:22;;;;;;;1.60;1.37;;;8.50;99.90;;;;;;4937150;29;20191;-72
2020/12/28 14:04:48;;;;;;;1.33;1.20;;;8.40;99.90;;;;;;4936482;29;20210;-72
2020/12/28 14:07:13;;;;;;;2.93;1.47;;;8.50;99.90;;;;;;4936144;29;20187;-72
2020/12/28 14:09:39;;;;;;;2.73;1.90;;;8.50;99.90;;;;;;4936314;29;20186;-72
2020/12/28 14:12:05;;;;;;;2.77;1.50;;;8.50;99.90;;;;;;4936613;29;20189;-72
2020/12/28 14:14:30;;;;;;;4.13;1.83;;;8.30;99.90;;;;;;4936611;29;20171;-72
2020/12/28 14:16:56;;;;;;;4.10;1.50;;;8.30;99.90;;;;;;4936215;29;20178;-72
2020/12/28 14:19:21;;;;;;;1.97;1.53;;;8.40;99.90;;;;;;4936256;29;20179;-72
2020/12/28 14:21:47;;;;;;;2.20;1.47;;;8.30;99.90;;;;;;4936435;29;20616;-72
2020/12/28 14:24:12;;;;;;;2.70;1.70;;;8.30;99.90;;;;;;4936239;29;20179;-72
2020/12/28 14:26:38;;;;;;;3.73;1.73;;;8.30;99.90;;;;;;4936087;29;20225;-72
2020/12/28 14:29:03;;;;;;;4.13;2.43;;;8.20;99.90;;;;;;4936406;29;20190;-72
2020/12/28 14:31:29;;;;;;;3.07;2.23;;;8.20;99.90;;;;;;4936413;29;20223;-72
2020/12/28 14:33:54;;;;;;;1.93;1.47;;;8.20;99.90;;;;;;4936346;29;20551;-72
2020/12/28 14:36:22;;;;;;;1.97;1.30;;;8.10;99.90;;;;;;4936379;29;20250;-72
2020/12/28 14:38:48;;;;;;;2.57;1.80;;;8.20;99.90;;;;;;4936028;29;20175;-72
2020/12/28 14:41:15;;;;;;;2.83;1.73;;;8.10;99.90;;;;;;4936288;29;20438;-72
2020/12/28 14:43:43;;;;;;;2.60;1.60;;;8.00;99.90;;;;;;4936087;29;20463;-72
2020/12/28 14:46:14;;;;;;;1.97;1.50;;;8.00;99.90;;;;;;4936174;29;20478;-72
2020/12/28 14:48:39;;;;;;;2.50;1.87;;;7.90;99.90;;;;;;4936312;29;20411;-72
2020/12/28 14:51:05;;;;;;;2.77;1.70;;;7.90;99.90;;;;;;4936227;29;20486;-72
2020/12/28 14:53:35;;;;;;;2.33;1.43;;;7.90;99.90;;;;;;4936161;29;20607;-72
2020/12/28 14:56:01;;;;;;;2.93;2.10;;;7.90;99.90;;;;;;4935925;29;20656;-72
2020/12/28 14:58:28;;;;;;;1.83;1.27;;;7.90;99.90;;;;;;4936102;29;20467;-72
2020/12/28 15:00:54;;;;;;;3.13;1.70;;;7.90;99.90;;;;;;4935924;29;20183;-72
2020/12/28 15:03:19;;;;;;;4.10;1.57;;;7.80;99.90;;;;;;4935800;29;20921;-72
2020/12/28 15:05:45;;;;;;;2.17;1.87;;;7.80;99.90;;;;;;4935832;29;20255;-72
2020/12/28 15:08:11;;;;;;;2.87;1.80;;;7.80;99.90;;;;;;4936119;29;20176;-73
2020/12/28 15:10:37;;;;;;;4.23;1.83;;;7.80;99.90;;;;;;4936000;29;20190;-72
2020/12/28 15:13:03;;;;;;;2.43;1.87;;;7.80;99.90;;;;;;4936015;29;20828;-72
2020/12/28 15:15:28;;;;;;;1.60;1.50;;;7.80;99.90;;;;;;4935768;29;20551;-72
2020/12/28 15:17:54;;;;;;;2.50;1.60;;;7.80;99.90;;;;;;4936033;29;20510;-72
2020/12/28 15:20:20;;;;;;;1.83;1.63;;;7.70;99.90;;;;;;4939319;29;20532;-72
2020/12/28 15:22:45;;;;;;;2.60;1.87;;;7.70;99.90;;;;;;4939463;29;20500;-72
2020/12/28 15:25:11;;;;;;;4.10;1.47;;;7.60;99.90;;;;;;4939079;29;20214;-72
2020/12/28 15:27:37;;;;;;;2.20;1.90;;;7.60;99.90;;;;;;4938289;29;20496;-72
2020/12/28 15:30:04;;;;;;;3.40;1.90;;;7.60;99.90;;;;;;4939116;29;20171;-72
2020/12/28 15:32:30;;;;;;;2.60;1.90;;;7.70;99.90;;;;;;4939190;29;20194;-72
2020/12/28 15:34:55;;;;;;;2.73;1.80;;;7.60;99.90;;;;;;4939148;29;20772;-72
2020/12/28 15:37:21;;;;;;;3.47;1.57;;;7.60;99.90;;;;;;4938805;29;20187;-72
2020/12/28 15:39:47;;;;;;;11.87;4.97;;;7.60;99.90;;;;;;4938846;29;20179;-72
2020/12/28 15:42:12;;;;;;;8.67;3.90;;;7.50;99.90;;;;;;4939014;29;20262;-72
2020/12/28 15:44:38;;;;;;;7.00;3.70;;;7.50;99.90;;;;;;4938701;29;20728;-72
2020/12/28 15:47:03;;;;;;;6.53;4.33;;;7.50;99.90;;;;;;4939032;29;20203;-72
2020/12/28 15:49:29;;;;;;;6.87;4.70;;;7.60;99.90;;;;;;4938544;29;20250;-72
2020/12/28 15:51:54;;;;;;;6.00;4.47;;;7.60;99.90;;;;;;4938691;29;20179;-72
2020/12/28 15:54:20;;;;;;;8.40;4.43;;;7.50;99.90;;;;;;4938498;29;20210;-72
2020/12/28 15:56:49;;;;;;;3.80;2.90;;;7.50;99.90;;;;;;4938844;29;20239;-72
2020/12/28 15:59:15;;;;;;;3.70;3.10;;;7.50;99.90;;;;;;4938827;29;20554;-72
2020/12/28 16:05:02;;;;;;;4.07;2.33;;;7.50;99.90;;;;;;4938475;29;20227;-72
2020/12/28 16:10:50;;;;;;;4.60;2.23;;;7.50;99.90;;;;;;4938390;29;20627;-70
2020/12/28 16:13:16;;;;;;;6.40;3.10;;;7.50;99.90;;;;;;4938570;29;20504;-72
2020/12/28 16:15:41;;;;;;;8.20;5.47;;;7.50;99.90;;;;;;4937826;29;20495;-72
2020/12/28 16:18:07;;;;;;;3.80;2.73;;;7.50;99.90;;;;;;4938206;29;20187;-69
2020/12/28 16:20:32;;;;;;;8.07;2.67;;;7.60;99.90;;;;;;4936955;29;20785;-69
2020/12/28 16:22:58;;;;;;;3.87;2.63;;;7.80;99.90;;;;;;4938160;29;20194;-72
2020/12/28 16:25:23;;;;;;;4.00;3.27;;;7.90;99.90;;;;;;4938848;29;20740;-71
2020/12/28 16:31:12;;;;;;;3.40;2.87;;;7.80;99.90;;;;;;4937759;29;20198;-71
2020/12/28 16:33:38;;;;;;;3.27;2.67;;;7.70;99.90;;;;;;4938062;29;20774;-70
2020/12/28 16:36:09;;;;;;;4.63;2.83;;;7.60;99.90;;;;;;4938044;29;20450;-71
2020/12/28 16:38:35;;;;;;;6.10;3.30;;;7.60;99.90;;;;;;4937780;29;20470;-74
2020/12/28 16:41:01;;;;;;;4.63;2.20;;;7.70;99.90;;;;;;4937983;29;20438;-73
2020/12/28 16:47:08;;;;;;;3.63;3.00;;;7.70;99.90;;;;;;4929297;29;20234;-75
2020/12/28 16:49:34;;;;;;;3.33;2.40;;;7.70;99.90;;;;;;4937618;29;20431;-75
2020/12/28 16:55:21;;;;;;;3.57;3.17;;;7.70;99.90;;;;;;4937468;29;20587;-72
2020/12/28 17:01:12;;;;;;;2.03;1.83;;;7.60;99.90;;;;;;4937310;29;20653;-72
2020/12/28 17:07:00;;;;;;;5.87;2.40;;;7.60;99.90;;;;;;4937198;29;20470;-72
2020/12/28 17:12:48;;;;;;;2.83;2.33;;;7.50;99.90;;;;;;4937228;29;20414;-72
2020/12/28 17:18:39;;;;;;;4.10;1.93;;;7.30;99.90;;;;;;4937037;29;20625;-72
2020/12/28 17:24:29;;;;;;;3.17;2.40;;;7.20;99.90;;;;;;4936931;29;20473;-75
2020/12/28 17:26:56;;;;;;;3.10;2.80;;;7.10;99.90;;;;;;4937127;29;20481;-67
2020/12/28 17:29:23;;;;;;;3.40;2.73;;;7.10;99.90;;;;;;4935447;29;20459;-71
2020/12/28 17:35:10;;;;;;;2.80;2.60;;;7.20;99.90;;;;;;4936672;29;20828;-70
2020/12/28 17:37:36;;;;;;;3.80;2.83;;;7.20;99.90;;;;;;4937308;29;20431;-74
2020/12/28 17:40:02;;;;;;;3.10;2.30;;;7.20;99.90;;;;;;4936609;29;20175;-69
2020/12/28 17:45:49;;;;;;;4.83;2.97;;;7.10;99.90;;;;;;4936181;29;20461;-74
2020/12/28 17:48:15;;;;;;;2.80;2.60;;;7.10;99.90;;;;;;4936786;29;20829;-74
2020/12/28 17:50:40;;;;;;;4.03;2.57;;;7.20;99.90;;;;;;4936738;29;20174;-74
2020/12/28 17:53:06;;;;;;;17.13;11.63;;;7.10;99.90;;;;;;4936377;29;20533;-74
2020/12/28 17:58:54;;;;;;;4.30;3.30;;;7.10;99.90;;;;;;4936388;29;20158;-72
2020/12/28 18:04:41;;;;;;;3.47;3.07;;;7.00;99.90;;;;;;4936409;29;20462;-72
2020/12/28 18:07:07;;;;;;;3.30;3.00;;;6.90;99.90;;;;;;4936536;29;20534;-72
2020/12/28 18:09:34;;;;;;;3.47;3.17;;;6.90;99.90;;;;;;4936457;29;20232;-72
2020/12/28 18:11:59;;;;;;;4.73;3.33;;;6.90;99.90;;;;;;4936441;29;20210;-72
2020/12/28 18:14:25;;;;;;;3.40;2.80;;;6.90;99.90;;;;;;4936400;29;20548;-72
2020/12/28 18:16:51;;;;;;;4.20;2.97;;;6.90;99.90;;;;;;4936462;29;20538;-71
2020/12/28 18:19:16;;;;;;;6.40;3.07;;;6.90;99.90;;;;;;4936652;29;20186;-72
2020/12/28 18:21:44;;;;;;;3.50;2.93;;;6.90;99.90;;;;;;4936331;29;20183;-72
2020/12/28 18:24:10;;;;;;;4.23;3.10;;;7.00;99.90;;;;;;4936268;29;20194;-72
2020/12/28 18:26:35;;;;;;;3.40;3.10;;;7.10;99.90;;;;;;4936286;29;20562;-72
2020/12/28 18:29:01;;;;;;;3.73;3.40;;;7.10;99.90;;;;;;4936328;29;20167;-73
2020/12/28 18:31:28;;;;;;;4.10;3.10;;;7.00;99.90;;;;;;4936088;29;20218;-73
2020/12/28 18:33:53;;;;;;;3.87;3.30;;;7.00;99.90;;;;;;4936289;29;20209;-74
2020/12/28 18:36:19;;;;;;;6.40;3.80;;;7.00;99.90;;;;;;4936271;29;20832;-74
2020/12/28 18:38:45;;;;;;;5.80;3.47;;;7.00;99.90;;;;;;4935971;29;20544;-74
2020/12/28 18:41:11;;;;;;;4.47;3.70;;;7.00;99.90;;;;;;4936027;29;20581;-72
2020/12/28 18:43:37;;;;;;;3.33;3.03;;;7.00;99.90;;;;;;4935986;29;20442;-75
2020/12/28 18:46:04;;;;;;;3.90;3.00;;;7.00;99.90;;;;;;4935851;29;20575;-76
2020/12/28 18:51:52;;;;;;;3.57;3.03;;;7.10;99.90;;;;;;4935900;29;20418;-75
2020/12/28 18:54:24;;;;;;;3.00;2.80;;;7.10;99.90;;;;;;4937539;29;20999;-75
2020/12/28 19:00:11;;;;;;;4.10;3.33;;;7.20;99.90;;;;;;4939573;29;20510;-80
2020/12/28 19:02:37;;;;;;;3.87;3.40;;;7.10;99.90;;;;;;4939740;29;20509;-75
2020/12/28 19:05:03;;;;;;;3.27;2.97;;;7.10;99.90;;;;;;4939483;29;20179;-76
2020/12/28 19:07:29;;;;;;;4.27;2.90;;;7.10;99.90;;;;;;4939702;29;20954;-78
2020/12/28 19:09:54;;;;;;;2.10;1.80;;;7.10;99.90;;;;;;4939341;29;20427;-78
2020/12/28 19:12:20;;;;;;;3.80;3.17;;;7.10;99.90;;;;;;4939563;29;20187;-80
2020/12/28 19:14:45;;;;;;;3.57;2.47;;;7.20;99.90;;;;;;4938084;29;20183;-76
2020/12/28 19:17:11;;;;;;;3.37;2.20;;;7.10;99.90;;;;;;4939536;29;20183;-75
2020/12/28 19:19:39;;;;;;;3.57;2.83;;;7.20;99.90;;;;;;4939208;29;20330;-83